Portada
METAR-TAF:

METAR-TAF

Aeroports :

Sankt Gallen, Suïssa

latitud: 47-29-06N, longitud: 009-33-43E, altitud: 398 m

Observació

L'informe es va fer fa 35 minuts, a les 21:20 UTC
Vent 2 kt del Sud
Temperatura 12°C
Humitat 82%
Pressió 1033 hPa
Visibilitat 10 km o més
Cel ennuvolat a una alçada de 8000 ft

METAR: LSZR 252120Z AUTO 19002KT 9999 BKN080 12/09 Q1033

Hora: 23:55 (21:55 UTC)

Pronòstic

L'informe es va fer fa 7 hores i 30 minuts, a les 14:25 UTC
Pronòstic vàlid del 25 a les 15 UTC al 25 a les 24 UTC
Vent 3 kt amb direcció variable
Visibilitat 10 km o més
Escasses núvols a una alçada de 5000 ft
Núvols disperses a una alçada de 7000 ft
Temporalment
l' 25 a les 15 UTC al 25 a les 17 UTC
Vent 8 kt del Oest/Nord-Oest

TAF: LSZR 251425Z 2515/2524 VRB03KT 9999 FEW050 SCT070 TEMPO 2515/2517 29008KT

Observacions i pronòstics meteorològics de més de 4000 aeroports (METAR i TAF).

Les estacions disponibles són els punts grocs i vermells al mapa.

Posi el ratolí al punt desitjat per veure el nom de l'estació.

Feu clic per veure les observacions i els pronòstics meteorològics.

Per canviar el mapa: feu clic els botons verds amb una creu de color negre per apropar; al botó verd amb un guió per allunyar la imatge; o en les fletxes verdes per a mapes adjacents.


METAR-TAF: